sensor_id;sensor_type;location;lat;lon;timestamp;P1;durP1;ratioP1;P2;durP2;ratioP2
34783;SDS011;20998;51.388;7.032;2023-08-08T00:01:17;2.70;;;1.20;;
34783;SDS011;20998;51.388;7.032;2023-08-08T00:03:43;2.43;;;1.20;;
34783;SDS011;20998;51.388;7.032;2023-08-08T00:06:09;2.63;;;1.60;;
34783;SDS011;20998;51.388;7.032;2023-08-08T00:08:35;2.57;;;1.40;;
34783;SDS011;20998;51.388;7.032;2023-08-08T00:11:01;1.60;;;1.33;;
34783;SDS011;20998;51.388;7.032;2023-08-08T00:13:27;1.70;;;1.30;;
34783;SDS011;20998;51.388;7.032;2023-08-08T00:15:53;1.87;;;1.27;;
34783;SDS011;20998;51.388;7.032;2023-08-08T00:18:19;2.50;;;1.67;;
34783;SDS011;20998;51.388;7.032;2023-08-08T00:20:45;5.13;;;1.77;;
34783;SDS011;20998;51.388;7.032;2023-08-08T00:23:11;4.13;;;1.80;;
34783;SDS011;20998;51.388;7.032;2023-08-08T00:25:37;1.97;;;1.50;;
34783;SDS011;20998;51.388;7.032;2023-08-08T00:28:03;2.70;;;1.40;;
34783;SDS011;20998;51.388;7.032;2023-08-08T00:30:29;2.43;;;1.63;;
34783;SDS011;20998;51.388;7.032;2023-08-08T00:32:55;2.23;;;1.37;;
34783;SDS011;20998;51.388;7.032;2023-08-08T00:35:21;2.03;;;1.60;;
34783;SDS011;20998;51.388;7.032;2023-08-08T00:37:47;3.07;;;1.53;;
34783;SDS011;20998;51.388;7.032;2023-08-08T00:40:13;3.20;;;1.87;;
34783;SDS011;20998;51.388;7.032;2023-08-08T00:42:39;2.33;;;1.07;;
34783;SDS011;20998;51.388;7.032;2023-08-08T00:45:05;1.70;;;1.00;;
34783;SDS011;20998;51.388;7.032;2023-08-08T00:47:32;3.83;;;1.50;;
34783;SDS011;20998;51.388;7.032;2023-08-08T00:49:59;1.80;;;1.40;;
34783;SDS011;20998;51.388;7.032;2023-08-08T00:52:26;2.60;;;1.30;;
34783;SDS011;20998;51.388;7.032;2023-08-08T00:54:52;9.63;;;1.50;;
34783;SDS011;20998;51.388;7.032;2023-08-08T00:57:18;8.37;;;1.50;;
34783;SDS011;20998;51.388;7.032;2023-08-08T00:59:44;2.67;;;1.60;;
34783;SDS011;20998;51.388;7.032;2023-08-08T01:02:11;1.70;;;1.40;;
34783;SDS011;20998;51.388;7.032;2023-08-08T01:04:36;1.70;;;1.50;;
34783;SDS011;20998;51.388;7.032;2023-08-08T01:09:53;2.30;;;1.10;;
34783;SDS011;20998;51.388;7.032;2023-08-08T01:12:23;2.67;;;1.87;;
34783;SDS011;20998;51.388;7.032;2023-08-08T01:14:50;2.33;;;1.57;;
34783;SDS011;20998;51.388;7.032;2023-08-08T01:17:16;5.07;;;1.30;;
34783;SDS011;20998;51.388;7.032;2023-08-08T01:19:42;2.90;;;1.57;;
34783;SDS011;20998;51.388;7.032;2023-08-08T01:22:16;3.77;;;1.60;;
34783;SDS011;20998;51.388;7.032;2023-08-08T01:24:49;3.17;;;1.80;;
34783;SDS011;20998;51.388;7.032;2023-08-08T01:27:16;4.00;;;1.60;;
34783;SDS011;20998;51.388;7.032;2023-08-08T01:29:42;2.20;;;1.20;;
34783;SDS011;20998;51.388;7.032;2023-08-08T01:32:08;1.27;;;1.13;;
34783;SDS011;20998;51.388;7.032;2023-08-08T01:34:35;7.00;;;1.73;;
34783;SDS011;20998;51.388;7.032;2023-08-08T01:39:39;2.33;;;1.57;;
34783;SDS011;20998;51.388;7.032;2023-08-08T01:42:06;4.80;;;1.40;;
34783;SDS011;20998;51.388;7.032;2023-08-08T01:44:32;2.77;;;1.73;;
34783;SDS011;20998;51.388;7.032;2023-08-08T01:47:00;8.03;;;1.90;;
34783;SDS011;20998;51.388;7.032;2023-08-08T01:49:26;6.60;;;1.93;;
34783;SDS011;20998;51.388;7.032;2023-08-08T01:51:52;4.03;;;1.93;;
34783;SDS011;20998;51.388;7.032;2023-08-08T01:54:18;9.07;;;2.17;;
34783;SDS011;20998;51.388;7.032;2023-08-08T01:56:44;2.90;;;1.40;;
34783;SDS011;20998;51.388;7.032;2023-08-08T01:59:10;2.90;;;1.57;;
34783;SDS011;20998;51.388;7.032;2023-08-08T02:01:36;3.67;;;1.80;;
34783;SDS011;20998;51.388;7.032;2023-08-08T02:04:02;5.50;;;2.03;;
34783;SDS011;20998;51.388;7.032;2023-08-08T02:06:28;2.37;;;1.80;;
34783;SDS011;20998;51.388;7.032;2023-08-08T02:08:54;1.77;;;1.57;;
34783;SDS011;20998;51.388;7.032;2023-08-08T02:11:20;2.90;;;1.57;;
34783;SDS011;20998;51.388;7.032;2023-08-08T02:13:46;3.43;;;1.93;;
34783;SDS011;20998;51.388;7.032;2023-08-08T02:16:12;4.00;;;1.73;;
34783;SDS011;20998;51.388;7.032;2023-08-08T02:18:38;3.67;;;2.03;;
34783;SDS011;20998;51.388;7.032;2023-08-08T02:21:06;3.17;;;1.60;;
34783;SDS011;20998;51.388;7.032;2023-08-08T02:23:32;3.20;;;1.97;;
34783;SDS011;20998;51.388;7.032;2023-08-08T02:25:58;3.67;;;1.60;;
34783;SDS011;20998;51.388;7.032;2023-08-08T02:28:24;2.10;;;1.60;;
34783;SDS011;20998;51.388;7.032;2023-08-08T02:30:50;2.93;;;1.60;;
34783;SDS011;20998;51.388;7.032;2023-08-08T02:33:16;2.90;;;1.80;;
34783;SDS011;20998;51.388;7.032;2023-08-08T02:35:42;3.83;;;1.83;;
34783;SDS011;20998;51.388;7.032;2023-08-08T02:38:08;5.53;;;2.00;;
34783;SDS011;20998;51.388;7.032;2023-08-08T02:40:34;2.23;;;1.50;;
34783;SDS011;20998;51.388;7.032;2023-08-08T02:43:00;6.87;;;2.00;;
34783;SDS011;20998;51.388;7.032;2023-08-08T02:45:25;2.33;;;1.73;;
34783;SDS011;20998;51.388;7.032;2023-08-08T02:47:51;6.80;;;2.10;;
34783;SDS011;20998;51.388;7.032;2023-08-08T02:50:17;6.00;;;1.70;;
34783;SDS011;20998;51.388;7.032;2023-08-08T02:52:42;4.00;;;1.80;;
34783;SDS011;20998;51.388;7.032;2023-08-08T02:55:08;3.20;;;1.80;;
34783;SDS011;20998;51.388;7.032;2023-08-08T02:57:34;2.83;;;1.90;;
34783;SDS011;20998;51.388;7.032;2023-08-08T03:00:00;3.60;;;1.93;;
34783;SDS011;20998;51.388;7.032;2023-08-08T03:02:26;3.97;;;1.70;;
34783;SDS011;20998;51.388;7.032;2023-08-08T03:04:51;2.93;;;1.70;;
34783;SDS011;20998;51.388;7.032;2023-08-08T03:07:17;4.03;;;1.67;;
34783;SDS011;20998;51.388;7.032;2023-08-08T03:09:43;1.67;;;1.37;;
34783;SDS011;20998;51.388;7.032;2023-08-08T03:12:09;2.90;;;1.77;;
34783;SDS011;20998;51.388;7.032;2023-08-08T03:14:34;3.57;;;1.80;;
34783;SDS011;20998;51.388;7.032;2023-08-08T03:17:00;4.97;;;1.97;;
34783;SDS011;20998;51.388;7.032;2023-08-08T03:19:26;4.53;;;2.03;;
34783;SDS011;20998;51.388;7.032;2023-08-08T03:21:52;3.53;;;1.63;;
34783;SDS011;20998;51.388;7.032;2023-08-08T03:24:18;3.17;;;1.80;;
34783;SDS011;20998;51.388;7.032;2023-08-08T03:26:43;2.93;;;1.77;;
34783;SDS011;20998;51.388;7.032;2023-08-08T03:29:09;4.13;;;2.10;;
34783;SDS011;20998;51.388;7.032;2023-08-08T03:31:35;3.40;;;2.13;;
34783;SDS011;20998;51.388;7.032;2023-08-08T03:34:02;7.03;;;2.40;;
34783;SDS011;20998;51.388;7.032;2023-08-08T03:36:29;4.73;;;2.33;;
34783;SDS011;20998;51.388;7.032;2023-08-08T03:38:55;4.07;;;2.10;;
34783;SDS011;20998;51.388;7.032;2023-08-08T03:41:21;3.53;;;1.80;;
34783;SDS011;20998;51.388;7.032;2023-08-08T03:43:47;2.23;;;1.63;;
34783;SDS011;20998;51.388;7.032;2023-08-08T03:46:12;3.93;;;1.90;;
34783;SDS011;20998;51.388;7.032;2023-08-08T03:48:38;6.47;;;2.00;;
34783;SDS011;20998;51.388;7.032;2023-08-08T03:51:04;5.40;;;2.10;;
34783;SDS011;20998;51.388;7.032;2023-08-08T03:53:31;4.53;;;1.90;;
34783;SDS011;20998;51.388;7.032;2023-08-08T03:55:57;6.83;;;1.83;;
34783;SDS011;20998;51.388;7.032;2023-08-08T03:58:23;7.77;;;2.30;;
34783;SDS011;20998;51.388;7.032;2023-08-08T04:00:49;9.60;;;1.97;;
34783;SDS011;20998;51.388;7.032;2023-08-08T04:03:15;2.43;;;1.80;;
34783;SDS011;20998;51.388;7.032;2023-08-08T04:05:45;7.10;;;2.40;;
34783;SDS011;20998;51.388;7.032;2023-08-08T04:08:15;4.73;;;1.97;;
34783;SDS011;20998;51.388;7.032;2023-08-08T04:10:41;3.30;;;2.10;;
34783;SDS011;20998;51.388;7.032;2023-08-08T04:13:07;4.57;;;2.40;;
34783;SDS011;20998;51.388;7.032;2023-08-08T04:15:33;5.47;;;2.13;;
34783;SDS011;20998;51.388;7.032;2023-08-08T04:18:00;4.87;;;2.30;;
34783;SDS011;20998;51.388;7.032;2023-08-08T04:20:26;2.40;;;1.90;;
34783;SDS011;20998;51.388;7.032;2023-08-08T04:22:52;10.33;;;2.20;;
34783;SDS011;20998;51.388;7.032;2023-08-08T04:25:18;4.87;;;2.67;;
34783;SDS011;20998;51.388;7.032;2023-08-08T04:27:46;5.47;;;2.30;;
34783;SDS011;20998;51.388;7.032;2023-08-08T04:30:12;9.73;;;3.20;;
34783;SDS011;20998;51.388;7.032;2023-08-08T04:32:37;4.33;;;2.33;;
34783;SDS011;20998;51.388;7.032;2023-08-08T04:35:03;5.50;;;2.60;;
34783;SDS011;20998;51.388;7.032;2023-08-08T04:37:29;8.70;;;2.30;;
34783;SDS011;20998;51.388;7.032;2023-08-08T04:39:55;5.17;;;2.70;;
34783;SDS011;20998;51.388;7.032;2023-08-08T04:42:20;7.20;;;2.60;;
34783;SDS011;20998;51.388;7.032;2023-08-08T04:44:46;7.97;;;2.70;;
34783;SDS011;20998;51.388;7.032;2023-08-08T04:47:12;8.23;;;3.63;;
34783;SDS011;20998;51.388;7.032;2023-08-08T04:49:38;6.07;;;3.20;;
34783;SDS011;20998;51.388;7.032;2023-08-08T04:52:03;14.63;;;3.77;;
34783;SDS011;20998;51.388;7.032;2023-08-08T04:54:29;7.17;;;3.60;;
34783;SDS011;20998;51.388;7.032;2023-08-08T04:56:55;12.93;;;3.67;;
34783;SDS011;20998;51.388;7.032;2023-08-08T04:59:21;6.87;;;3.33;;
34783;SDS011;20998;51.388;7.032;2023-08-08T05:01:47;6.73;;;3.40;;
34783;SDS011;20998;51.388;7.032;2023-08-08T05:04:12;9.33;;;3.37;;
34783;SDS011;20998;51.388;7.032;2023-08-08T05:06:38;4.90;;;3.57;;
34783;SDS011;20998;51.388;7.032;2023-08-08T05:09:04;10.37;;;3.73;;
34783;SDS011;20998;51.388;7.032;2023-08-08T05:11:30;12.63;;;4.20;;
34783;SDS011;20998;51.388;7.032;2023-08-08T05:13:55;9.43;;;4.07;;
34783;SDS011;20998;51.388;7.032;2023-08-08T05:16:21;12.00;;;4.47;;
34783;SDS011;20998;51.388;7.032;2023-08-08T05:18:49;10.53;;;4.00;;
34783;SDS011;20998;51.388;7.032;2023-08-08T05:21:15;12.90;;;4.90;;
34783;SDS011;20998;51.388;7.032;2023-08-08T05:23:40;11.97;;;5.07;;
34783;SDS011;20998;51.388;7.032;2023-08-08T05:26:06;11.60;;;4.90;;
34783;SDS011;20998;51.388;7.032;2023-08-08T05:28:32;11.13;;;4.57;;
34783;SDS011;20998;51.388;7.032;2023-08-08T05:30:58;14.93;;;5.60;;
34783;SDS011;20998;51.388;7.032;2023-08-08T05:33:24;8.60;;;5.13;;
34783;SDS011;20998;51.388;7.032;2023-08-08T05:35:50;12.63;;;5.23;;
34783;SDS011;20998;51.388;7.032;2023-08-08T05:38:16;9.60;;;4.77;;
34783;SDS011;20998;51.388;7.032;2023-08-08T05:40:42;13.73;;;5.30;;
34783;SDS011;20998;51.388;7.032;2023-08-08T05:43:08;11.27;;;5.93;;
34783;SDS011;20998;51.388;7.032;2023-08-08T05:45:34;15.27;;;5.27;;
34783;SDS011;20998;51.388;7.032;2023-08-08T05:48:00;12.30;;;6.13;;
34783;SDS011;20998;51.388;7.032;2023-08-08T05:50:29;16.97;;;5.37;;
34783;SDS011;20998;51.388;7.032;2023-08-08T05:52:54;8.77;;;5.33;;
34783;SDS011;20998;51.388;7.032;2023-08-08T05:55:20;13.23;;;5.20;;
34783;SDS011;20998;51.388;7.032;2023-08-08T05:57:46;13.30;;;5.90;;
34783;SDS011;20998;51.388;7.032;2023-08-08T06:00:12;16.80;;;5.50;;
34783;SDS011;20998;51.388;7.032;2023-08-08T06:02:38;15.83;;;6.10;;
34783;SDS011;20998;51.388;7.032;2023-08-08T06:05:04;14.63;;;6.13;;
34783;SDS011;20998;51.388;7.032;2023-08-08T06:07:30;10.07;;;5.87;;
34783;SDS011;20998;51.388;7.032;2023-08-08T06:09:56;12.87;;;5.70;;
34783;SDS011;20998;51.388;7.032;2023-08-08T06:12:22;13.33;;;6.53;;
34783;SDS011;20998;51.388;7.032;2023-08-08T06:14:48;20.87;;;10.23;;
34783;SDS011;20998;51.388;7.032;2023-08-08T06:17:13;19.07;;;8.63;;
34783;SDS011;20998;51.388;7.032;2023-08-08T06:19:39;13.60;;;6.40;;
34783;SDS011;20998;51.388;7.032;2023-08-08T06:22:05;22.80;;;5.50;;
34783;SDS011;20998;51.388;7.032;2023-08-08T06:24:31;12.67;;;5.40;;
34783;SDS011;20998;51.388;7.032;2023-08-08T06:26:58;17.43;;;5.63;;
34783;SDS011;20998;51.388;7.032;2023-08-08T06:29:23;18.00;;;6.13;;
34783;SDS011;20998;51.388;7.032;2023-08-08T06:31:49;14.03;;;5.80;;
34783;SDS011;20998;51.388;7.032;2023-08-08T06:34:15;9.87;;;5.47;;
34783;SDS011;20998;51.388;7.032;2023-08-08T06:36:41;16.07;;;5.77;;
34783;SDS011;20998;51.388;7.032;2023-08-08T06:39:07;21.33;;;6.33;;
34783;SDS011;20998;51.388;7.032;2023-08-08T06:41:34;15.30;;;6.60;;
34783;SDS011;20998;51.388;7.032;2023-08-08T06:44:00;12.03;;;6.23;;
34783;SDS011;20998;51.388;7.032;2023-08-08T06:46:26;13.57;;;6.37;;
34783;SDS011;20998;51.388;7.032;2023-08-08T06:48:52;13.90;;;6.50;;
34783;SDS011;20998;51.388;7.032;2023-08-08T06:51:21;11.63;;;5.50;;
34783;SDS011;20998;51.388;7.032;2023-08-08T06:53:47;15.97;;;6.23;;
34783;SDS011;20998;51.388;7.032;2023-08-08T06:56:13;12.33;;;6.77;;
34783;SDS011;20998;51.388;7.032;2023-08-08T06:58:39;13.80;;;7.30;;
34783;SDS011;20998;51.388;7.032;2023-08-08T07:01:05;18.43;;;6.80;;
34783;SDS011;20998;51.388;7.032;2023-08-08T07:03:31;14.77;;;6.77;;
34783;SDS011;20998;51.388;7.032;2023-08-08T07:05:57;11.80;;;7.00;;
34783;SDS011;20998;51.388;7.032;2023-08-08T07:08:23;9.67;;;6.17;;
34783;SDS011;20998;51.388;7.032;2023-08-08T07:10:49;10.30;;;6.27;;
34783;SDS011;20998;51.388;7.032;2023-08-08T07:13:14;22.73;;;6.73;;
34783;SDS011;20998;51.388;7.032;2023-08-08T07:15:40;22.57;;;9.50;;
34783;SDS011;20998;51.388;7.032;2023-08-08T07:18:06;17.87;;;7.07;;
34783;SDS011;20998;51.388;7.032;2023-08-08T07:20:32;15.03;;;8.03;;
34783;SDS011;20998;51.388;7.032;2023-08-08T07:22:58;14.53;;;7.47;;
34783;SDS011;20998;51.388;7.032;2023-08-08T07:25:25;13.67;;;6.70;;
34783;SDS011;20998;51.388;7.032;2023-08-08T07:27:51;14.17;;;7.33;;
34783;SDS011;20998;51.388;7.032;2023-08-08T07:30:17;17.80;;;6.73;;
34783;SDS011;20998;51.388;7.032;2023-08-08T07:32:43;13.23;;;6.00;;
34783;SDS011;20998;51.388;7.032;2023-08-08T07:35:08;10.80;;;5.77;;
34783;SDS011;20998;51.388;7.032;2023-08-08T07:37:35;14.83;;;5.13;;
34783;SDS011;20998;51.388;7.032;2023-08-08T07:40:01;14.50;;;5.40;;
34783;SDS011;20998;51.388;7.032;2023-08-08T07:42:29;17.80;;;6.27;;
34783;SDS011;20998;51.388;7.032;2023-08-08T07:44:55;12.60;;;5.87;;
34783;SDS011;20998;51.388;7.032;2023-08-08T07:47:20;15.17;;;5.10;;
34783;SDS011;20998;51.388;7.032;2023-08-08T07:49:46;13.30;;;4.97;;
34783;SDS011;20998;51.388;7.032;2023-08-08T07:52:12;8.90;;;4.90;;
34783;SDS011;20998;51.388;7.032;2023-08-08T07:54:38;7.83;;;4.47;;
34783;SDS011;20998;51.388;7.032;2023-08-08T07:57:04;7.03;;;4.50;;
34783;SDS011;20998;51.388;7.032;2023-08-08T07:59:30;7.57;;;4.40;;
34783;SDS011;20998;51.388;7.032;2023-08-08T08:01:56;8.07;;;4.13;;
34783;SDS011;20998;51.388;7.032;2023-08-08T08:04:21;9.23;;;3.63;;
34783;SDS011;20998;51.388;7.032;2023-08-08T08:06:47;7.73;;;3.90;;
34783;SDS011;20998;51.388;7.032;2023-08-08T08:09:13;11.30;;;4.03;;
34783;SDS011;20998;51.388;7.032;2023-08-08T08:11:39;16.50;;;4.47;;
34783;SDS011;20998;51.388;7.032;2023-08-08T08:14:05;10.17;;;3.90;;
34783;SDS011;20998;51.388;7.032;2023-08-08T08:16:31;8.07;;;3.37;;
34783;SDS011;20998;51.388;7.032;2023-08-08T08:18:58;13.80;;;3.97;;
34783;SDS011;20998;51.388;7.032;2023-08-08T08:21:24;12.47;;;4.03;;
34783;SDS011;20998;51.388;7.032;2023-08-08T08:23:49;10.43;;;3.30;;
34783;SDS011;20998;51.388;7.032;2023-08-08T08:26:16;8.60;;;3.27;;
34783;SDS011;20998;51.388;7.032;2023-08-08T08:28:42;11.07;;;3.07;;
34783;SDS011;20998;51.388;7.032;2023-08-08T08:31:08;5.27;;;3.00;;
34783;SDS011;20998;51.388;7.032;2023-08-08T08:33:34;15.30;;;3.50;;
34783;SDS011;20998;51.388;7.032;2023-08-08T08:36:00;7.70;;;2.50;;
34783;SDS011;20998;51.388;7.032;2023-08-08T08:38:25;12.47;;;3.10;;
34783;SDS011;20998;51.388;7.032;2023-08-08T08:40:51;6.97;;;2.93;;
34783;SDS011;20998;51.388;7.032;2023-08-08T08:43:20;6.03;;;2.80;;
34783;SDS011;20998;51.388;7.032;2023-08-08T08:45:49;5.70;;;2.57;;
34783;SDS011;20998;51.388;7.032;2023-08-08T08:48:17;5.47;;;2.40;;
34783;SDS011;20998;51.388;7.032;2023-08-08T08:50:44;4.40;;;2.37;;
34783;SDS011;20998;51.388;7.032;2023-08-08T08:53:12;5.23;;;2.47;;
34783;SDS011;20998;51.388;7.032;2023-08-08T08:55:39;8.23;;;2.73;;
34783;SDS011;20998;51.388;7.032;2023-08-08T08:58:05;3.73;;;2.17;;
34783;SDS011;20998;51.388;7.032;2023-08-08T09:00:31;3.77;;;2.10;;
34783;SDS011;20998;51.388;7.032;2023-08-08T09:02:57;6.20;;;2.27;;
34783;SDS011;20998;51.388;7.032;2023-08-08T09:05:24;5.30;;;1.90;;
34783;SDS011;20998;51.388;7.032;2023-08-08T09:07:51;7.27;;;2.13;;
34783;SDS011;20998;51.388;7.032;2023-08-08T09:10:17;3.73;;;2.20;;
34783;SDS011;20998;51.388;7.032;2023-08-08T09:12:45;4.80;;;2.17;;
34783;SDS011;20998;51.388;7.032;2023-08-08T09:15:11;7.73;;;2.03;;
34783;SDS011;20998;51.388;7.032;2023-08-08T09:17:41;6.00;;;1.83;;
34783;SDS011;20998;51.388;7.032;2023-08-08T09:20:08;4.60;;;1.90;;
34783;SDS011;20998;51.388;7.032;2023-08-08T09:22:36;3.00;;;1.83;;
34783;SDS011;20998;51.388;7.032;2023-08-08T09:25:02;7.27;;;2.27;;
34783;SDS011;20998;51.388;7.032;2023-08-08T09:27:28;5.97;;;2.53;;
34783;SDS011;20998;51.388;7.032;2023-08-08T09:29:54;9.27;;;2.63;;
34783;SDS011;20998;51.388;7.032;2023-08-08T09:32:20;3.47;;;1.90;;
34783;SDS011;20998;51.388;7.032;2023-08-08T09:34:46;7.97;;;2.43;;
34783;SDS011;20998;51.388;7.032;2023-08-08T09:37:12;3.90;;;2.10;;
34783;SDS011;20998;51.388;7.032;2023-08-08T09:39:39;5.30;;;2.07;;
34783;SDS011;20998;51.388;7.032;2023-08-08T09:42:05;5.30;;;2.43;;
34783;SDS011;20998;51.388;7.032;2023-08-08T09:44:33;6.63;;;2.13;;
34783;SDS011;20998;51.388;7.032;2023-08-08T09:47:00;8.57;;;2.33;;
34783;SDS011;20998;51.388;7.032;2023-08-08T09:49:26;9.03;;;2.87;;
34783;SDS011;20998;51.388;7.032;2023-08-08T09:51:52;5.13;;;2.07;;
34783;SDS011;20998;51.388;7.032;2023-08-08T09:54:19;3.40;;;1.80;;
34783;SDS011;20998;51.388;7.032;2023-08-08T09:56:46;3.73;;;2.20;;
34783;SDS011;20998;51.388;7.032;2023-08-08T09:59:14;10.07;;;2.27;;
34783;SDS011;20998;51.388;7.032;2023-08-08T10:01:43;5.37;;;1.90;;
34783;SDS011;20998;51.388;7.032;2023-08-08T10:04:09;2.73;;;1.93;;
34783;SDS011;20998;51.388;7.032;2023-08-08T10:06:36;6.10;;;2.37;;
34783;SDS011;20998;51.388;7.032;2023-08-08T10:09:02;3.83;;;2.20;;
34783;SDS011;20998;51.388;7.032;2023-08-08T10:11:28;4.67;;;2.53;;
34783;SDS011;20998;51.388;7.032;2023-08-08T10:13:56;8.37;;;2.03;;
34783;SDS011;20998;51.388;7.032;2023-08-08T10:16:23;5.63;;;2.17;;
34783;SDS011;20998;51.388;7.032;2023-08-08T10:18:55;3.60;;;2.47;;
34783;SDS011;20998;51.388;7.032;2023-08-08T10:21:23;15.83;;;2.73;;
34783;SDS011;20998;51.388;7.032;2023-08-08T10:23:49;2.77;;;1.73;;
34783;SDS011;20998;51.388;7.032;2023-08-08T10:26:26;5.67;;;2.30;;
34783;SDS011;20998;51.388;7.032;2023-08-08T10:28:56;3.23;;;1.83;;
34783;SDS011;20998;51.388;7.032;2023-08-08T10:31:23;4.40;;;2.50;;
34783;SDS011;20998;51.388;7.032;2023-08-08T10:33:49;9.50;;;2.33;;
34783;SDS011;20998;51.388;7.032;2023-08-08T10:36:15;6.30;;;2.13;;
34783;SDS011;20998;51.388;7.032;2023-08-08T10:41:11;6.00;;;2.07;;
34783;SDS011;20998;51.388;7.032;2023-08-08T10:43:38;4.97;;;2.00;;
34783;SDS011;20998;51.388;7.032;2023-08-08T10:46:05;6.47;;;1.93;;
34783;SDS011;20998;51.388;7.032;2023-08-08T10:48:32;5.27;;;2.03;;
34783;SDS011;20998;51.388;7.032;2023-08-08T10:50:58;4.47;;;2.13;;
34783;SDS011;20998;51.388;7.032;2023-08-08T10:53:25;3.87;;;2.00;;
34783;SDS011;20998;51.388;7.032;2023-08-08T10:56:02;5.83;;;1.97;;
34783;SDS011;20998;51.388;7.032;2023-08-08T10:58:39;8.33;;;1.93;;
34783;SDS011;20998;51.388;7.032;2023-08-08T11:01:06;5.70;;;2.20;;
34783;SDS011;20998;51.388;7.032;2023-08-08T11:03:38;5.50;;;1.83;;
34783;SDS011;20998;51.388;7.032;2023-08-08T11:06:08;9.23;;;2.27;;
34783;SDS011;20998;51.388;7.032;2023-08-08T11:08:35;3.27;;;1.80;;
34783;SDS011;20998;51.388;7.032;2023-08-08T11:11:03;2.43;;;1.47;;
34783;SDS011;20998;51.388;7.032;2023-08-08T11:13:29;6.27;;;1.97;;
34783;SDS011;20998;51.388;7.032;2023-08-08T11:15:55;3.57;;;1.67;;
34783;SDS011;20998;51.388;7.032;2023-08-08T11:18:21;2.43;;;1.63;;
34783;SDS011;20998;51.388;7.032;2023-08-08T11:20:47;6.83;;;1.93;;
34783;SDS011;20998;51.388;7.032;2023-08-08T11:23:14;5.33;;;1.90;;
34783;SDS011;20998;51.388;7.032;2023-08-08T11:25:41;5.60;;;2.43;;
34783;SDS011;20998;51.388;7.032;2023-08-08T11:28:08;4.13;;;1.57;;
34783;SDS011;20998;51.388;7.032;2023-08-08T11:30:36;2.60;;;1.60;;
34783;SDS011;20998;51.388;7.032;2023-08-08T11:33:03;4.80;;;2.10;;
34783;SDS011;20998;51.388;7.032;2023-08-08T11:35:29;7.33;;;2.30;;
34783;SDS011;20998;51.388;7.032;2023-08-08T11:37:58;6.10;;;2.07;;
34783;SDS011;20998;51.388;7.032;2023-08-08T11:40:25;7.60;;;2.43;;
34783;SDS011;20998;51.388;7.032;2023-08-08T11:42:53;4.67;;;2.13;;
34783;SDS011;20998;51.388;7.032;2023-08-08T11:45:19;2.63;;;1.87;;
34783;SDS011;20998;51.388;7.032;2023-08-08T11:47:49;7.17;;;2.30;;
34783;SDS011;20998;51.388;7.032;2023-08-08T11:50:15;2.00;;;1.80;;
34783;SDS011;20998;51.388;7.032;2023-08-08T11:52:44;3.70;;;1.87;;
34783;SDS011;20998;51.388;7.032;2023-08-08T11:55:11;4.20;;;2.00;;
34783;SDS011;20998;51.388;7.032;2023-08-08T11:57:40;4.10;;;2.10;;
34783;SDS011;20998;51.388;7.032;2023-08-08T12:00:06;3.63;;;2.47;;
34783;SDS011;20998;51.388;7.032;2023-08-08T12:02:34;9.00;;;2.37;;
34783;SDS011;20998;51.388;7.032;2023-08-08T12:05:03;4.53;;;2.10;;
34783;SDS011;20998;51.388;7.032;2023-08-08T12:07:34;5.07;;;2.20;;
34783;SDS011;20998;51.388;7.032;2023-08-08T12:10:00;3.23;;;1.93;;
34783;SDS011;20998;51.388;7.032;2023-08-08T12:12:27;2.53;;;1.83;;
34783;SDS011;20998;51.388;7.032;2023-08-08T12:14:55;3.77;;;1.90;;
34783;SDS011;20998;51.388;7.032;2023-08-08T12:17:21;5.87;;;2.30;;
34783;SDS011;20998;51.388;7.032;2023-08-08T12:19:47;6.23;;;1.83;;
34783;SDS011;20998;51.388;7.032;2023-08-08T12:22:14;3.63;;;1.87;;
34783;SDS011;20998;51.388;7.032;2023-08-08T12:24:40;4.20;;;2.03;;
34783;SDS011;20998;51.388;7.032;2023-08-08T12:27:06;5.80;;;1.87;;
34783;SDS011;20998;51.388;7.032;2023-08-08T12:29:32;7.87;;;2.33;;
34783;SDS011;20998;51.388;7.032;2023-08-08T12:31:58;6.07;;;2.37;;
34783;SDS011;20998;51.388;7.032;2023-08-08T12:34:24;5.77;;;2.20;;
34783;SDS011;20998;51.388;7.032;2023-08-08T12:36:50;7.60;;;2.27;;
34783;SDS011;20998;51.388;7.032;2023-08-08T12:39:16;4.77;;;2.27;;
34783;SDS011;20998;51.388;7.032;2023-08-08T12:41:42;3.97;;;1.70;;
34783;SDS011;20998;51.388;7.032;2023-08-08T12:44:07;7.83;;;2.10;;
34783;SDS011;20998;51.388;7.032;2023-08-08T12:46:33;5.10;;;2.23;;
34783;SDS011;20998;51.388;7.032;2023-08-08T12:48:59;4.20;;;2.67;;
34783;SDS011;20998;51.388;7.032;2023-08-08T12:51:25;4.07;;;2.20;;
34783;SDS011;20998;51.388;7.032;2023-08-08T12:53:51;7.83;;;1.97;;
34783;SDS011;20998;51.388;7.032;2023-08-08T12:56:17;3.83;;;1.80;;
34783;SDS011;20998;51.388;7.032;2023-08-08T12:58:43;2.17;;;1.60;;
34783;SDS011;20998;51.388;7.032;2023-08-08T13:01:09;5.17;;;2.30;;
34783;SDS011;20998;51.388;7.032;2023-08-08T13:03:35;5.53;;;1.80;;
34783;SDS011;20998;51.388;7.032;2023-08-08T13:06:01;5.63;;;2.10;;
34783;SDS011;20998;51.388;7.032;2023-08-08T13:08:27;5.13;;;1.80;;
34783;SDS011;20998;51.388;7.032;2023-08-08T13:10:53;9.53;;;2.03;;
34783;SDS011;20998;51.388;7.032;2023-08-08T13:13:19;4.57;;;1.80;;
34783;SDS011;20998;51.388;7.032;2023-08-08T13:15:48;11.33;;;2.23;;
34783;SDS011;20998;51.388;7.032;2023-08-08T13:18:14;7.03;;;2.07;;
34783;SDS011;20998;51.388;7.032;2023-08-08T13:20:40;6.07;;;2.20;;
34783;SDS011;20998;51.388;7.032;2023-08-08T13:23:06;2.57;;;2.00;;
34783;SDS011;20998;51.388;7.032;2023-08-08T13:25:32;5.37;;;2.10;;
34783;SDS011;20998;51.388;7.032;2023-08-08T13:27:59;2.83;;;1.93;;
34783;SDS011;20998;51.388;7.032;2023-08-08T13:30:26;2.97;;;1.77;;
34783;SDS011;20998;51.388;7.032;2023-08-08T13:32:52;3.00;;;2.10;;
34783;SDS011;20998;51.388;7.032;2023-08-08T13:35:18;8.07;;;2.00;;
34783;SDS011;20998;51.388;7.032;2023-08-08T13:37:44;2.63;;;2.13;;
34783;SDS011;20998;51.388;7.032;2023-08-08T13:40:11;3.27;;;2.20;;
34783;SDS011;20998;51.388;7.032;2023-08-08T13:42:36;2.77;;;1.70;;
34783;SDS011;20998;51.388;7.032;2023-08-08T13:45:03;8.13;;;2.37;;
34783;SDS011;20998;51.388;7.032;2023-08-08T13:47:29;8.53;;;2.17;;
34783;SDS011;20998;51.388;7.032;2023-08-08T13:49:55;3.23;;;1.73;;
34783;SDS011;20998;51.388;7.032;2023-08-08T13:52:21;6.87;;;2.03;;
34783;SDS011;20998;51.388;7.032;2023-08-08T13:54:47;3.10;;;1.73;;
34783;SDS011;20998;51.388;7.032;2023-08-08T13:57:13;2.73;;;1.73;;
34783;SDS011;20998;51.388;7.032;2023-08-08T13:59:39;3.20;;;1.60;;
34783;SDS011;20998;51.388;7.032;2023-08-08T14:02:05;5.30;;;1.90;;
34783;SDS011;20998;51.388;7.032;2023-08-08T14:04:31;3.23;;;1.60;;
34783;SDS011;20998;51.388;7.032;2023-08-08T14:06:57;3.63;;;1.60;;
34783;SDS011;20998;51.388;7.032;2023-08-08T14:09:22;3.77;;;1.67;;
34783;SDS011;20998;51.388;7.032;2023-08-08T14:11:48;2.10;;;1.60;;
34783;SDS011;20998;51.388;7.032;2023-08-08T14:14:14;7.53;;;1.70;;
34783;SDS011;20998;51.388;7.032;2023-08-08T14:16:40;2.33;;;1.33;;
34783;SDS011;20998;51.388;7.032;2023-08-08T14:19:06;5.37;;;2.03;;
34783;SDS011;20998;51.388;7.032;2023-08-08T14:21:33;6.40;;;2.13;;
34783;SDS011;20998;51.388;7.032;2023-08-08T14:23:59;5.10;;;1.70;;
34783;SDS011;20998;51.388;7.032;2023-08-08T14:26:25;7.43;;;2.03;;
34783;SDS011;20998;51.388;7.032;2023-08-08T14:28:51;3.00;;;1.60;;
34783;SDS011;20998;51.388;7.032;2023-08-08T14:31:17;3.03;;;1.60;;
34783;SDS011;20998;51.388;7.032;2023-08-08T14:33:43;2.93;;;1.67;;
34783;SDS011;20998;51.388;7.032;2023-08-08T14:36:09;3.47;;;1.57;;
34783;SDS011;20998;51.388;7.032;2023-08-08T14:38:35;5.23;;;1.80;;
34783;SDS011;20998;51.388;7.032;2023-08-08T14:41:01;2.67;;;1.60;;
34783;SDS011;20998;51.388;7.032;2023-08-08T14:43:27;1.50;;;1.30;;
34783;SDS011;20998;51.388;7.032;2023-08-08T14:45:53;1.50;;;1.27;;
34783;SDS011;20998;51.388;7.032;2023-08-08T14:48:19;7.50;;;1.40;;